Time;durP1;ratioP1;P1;durP2;ratioP2;P2;SDS_P1;SDS_P2;PMS_P1;PMS_P2;Temp;Humidity;BMP_temperature;BMP_pressure;BME280_temperature;BME280_humidity;BME280_pressure;Samples;Min_cycle;Max_cycle;Signal;HPM_P1;HPM_P2
2022/07/17 00:00:42;;;;;;;;;;;20.50;47.50;;;;;;5141687;27;19923;-49
2022/07/17 00:03:11;;;;;;;;;;;21.60;45.40;;;;;;5147237;27;20463;-48
2022/07/17 00:05:37;;;;;;;;;;;20.60;46.70;;;;;;5141115;27;20335;-48
2022/07/17 00:08:04;;;;;;;;;;;20.10;47.40;;;;;;5145940;27;19942;-54
2022/07/17 00:10:30;;;;;;;;;;;20.10;47.00;;;;;;5143350;27;19927;-48
2022/07/17 00:12:55;;;;;;;;;;;19.90;47.10;;;;;;5139836;27;19952;-50
2022/07/17 00:15:21;;;;;;;;;;;19.80;47.20;;;;;;5127801;27;19924;-47
2022/07/17 00:17:47;;;;;;;;;;;20.20;47.90;;;;;;5141233;27;19923;-49
2022/07/17 00:20:13;;;;;;;;;;;21.20;46.80;;;;;;5141516;27;19927;-49
2022/07/17 00:22:38;;;;;;;;;;;21.20;45.90;;;;;;5146545;27;19973;-47
2022/07/17 00:25:04;;;;;;;;;;;20.40;47.30;;;;;;5139804;27;20027;-47
2022/07/17 00:27:30;;;;;;;;;;;20.10;47.20;;;;;;5143144;27;20018;-55
2022/07/17 00:29:56;;;;;;;;;;;20.00;47.10;;;;;;5144208;27;20378;-45
2022/07/17 00:32:23;;;;;;;;;;;20.00;46.70;;;;;;5139717;27;20009;-48
2022/07/17 00:34:50;;;;;;;;;;;20.50;48.00;;;;;;5146376;27;19927;-48
2022/07/17 00:37:15;;;;;;;;;;;21.50;45.90;;;;;;5141011;27;19960;-45
2022/07/17 00:39:41;;;;;;;;;;;20.60;46.90;;;;;;5140821;27;20343;-46
2022/07/17 00:42:11;;;;;;;;;;;20.10;47.70;;;;;;5126453;27;19923;-45
2022/07/17 00:44:37;;;;;;;;;;;19.90;47.40;;;;;;5140844;27;20344;-45
2022/07/17 00:47:03;;;;;;;;;;;19.70;47.50;;;;;;5140752;27;20027;-46
2022/07/17 00:49:28;;;;;;;;;;;19.90;48.10;;;;;;5144775;27;19923;-47
2022/07/17 00:51:54;;;;;;;;;;;21.00;47.10;;;;;;5140028;27;19923;-51
2022/07/17 00:54:20;;;;;;;;;;;21.70;45.20;;;;;;5146090;27;19950;-49
2022/07/17 00:56:46;;;;;;;;;;;20.50;47.10;;;;;;5122523;27;20014;-48
2022/07/17 00:59:12;;;;;;;;;;;20.00;47.70;;;;;;5140850;27;20310;-46
2022/07/17 01:01:37;;;;;;;;;;;19.80;47.30;;;;;;5127151;27;19923;-47
2022/07/17 01:04:04;;;;;;;;;;;19.80;47.50;;;;;;5140767;27;19981;-45
2022/07/17 01:06:29;;;;;;;;;;;20.10;48.10;;;;;;5140268;27;20103;-47
2022/07/17 01:08:55;;;;;;;;;;;21.10;47.30;;;;;;5144829;27;19950;-49
2022/07/17 01:11:21;;;;;;;;;;;21.30;46.00;;;;;;5140451;27;20370;-49
2022/07/17 01:13:47;;;;;;;;;;;20.30;47.80;;;;;;5145991;27;19923;-47
2022/07/17 01:16:12;;;;;;;;;;;20.30;47.10;;;;;;5140425;27;20369;-49
2022/07/17 01:18:38;;;;;;;;;;;19.90;47.50;;;;;;5140186;27;19930;-47
2022/07/17 01:21:05;;;;;;;;;;;19.80;47.30;;;;;;5145770;27;19979;-47
2022/07/17 01:23:30;;;;;;;;;;;19.80;48.00;;;;;;5121523;27;19927;-48
2022/07/17 01:25:56;;;;;;;;;;;20.90;47.80;;;;;;5138995;27;20227;-48
2022/07/17 01:28:22;;;;;;;;;;;21.70;46.00;;;;;;5145122;27;19929;-49
2022/07/17 01:30:48;;;;;;;;;;;20.30;47.50;;;;;;5140140;27;19923;-47
2022/07/17 01:33:14;;;;;;;;;;;19.70;48.50;;;;;;5144058;27;19930;-55
2022/07/17 01:35:40;;;;;;;;;;;19.70;48.00;;;;;;5142606;27;19923;-46
2022/07/17 01:38:06;;;;;;;;;;;19.80;47.50;;;;;;5143310;27;19923;-47
2022/07/17 01:40:31;;;;;;;;;;;20.00;48.60;;;;;;5131038;27;20362;-46
2022/07/17 01:42:57;;;;;;;;;;;21.00;47.70;;;;;;5144242;27;19923;-44
2022/07/17 01:45:23;;;;;;;;;;;21.70;45.70;;;;;;5121909;27;19970;-46
2022/07/17 01:47:49;;;;;;;;;;;20.30;47.90;;;;;;5148994;27;19923;-46
2022/07/17 01:50:15;;;;;;;;;;;20.10;47.30;;;;;;5143598;27;19927;-45
2022/07/17 01:52:41;;;;;;;;;;;19.80;47.50;;;;;;5126736;27;19928;-55
2022/07/17 01:55:07;;;;;;;;;;;20.40;48.50;;;;;;5148093;27;19927;-44
2022/07/17 01:57:33;;;;;;;;;;;21.40;46.40;;;;;;5143642;27;19927;-46
2022/07/17 01:59:59;;;;;;;;;;;20.70;46.90;;;;;;5149009;27;19934;-45
2022/07/17 02:02:25;;;;;;;;;;;20.10;47.80;;;;;;5142591;27;19979;-46
2022/07/17 02:04:51;;;;;;;;;;;19.90;47.90;;;;;;5142497;27;19927;-45
2022/07/17 02:07:17;;;;;;;;;;;19.80;47.60;;;;;;5148818;27;20443;-46
2022/07/17 02:09:43;;;;;;;;;;;19.90;46.90;;;;;;5143334;27;20031;-45
2022/07/17 02:12:08;;;;;;;;;;;19.80;47.40;;;;;;5143499;27;19930;-45
2022/07/17 02:14:34;;;;;;;;;;;20.80;48.00;;;;;;5148289;27;20465;-46
2022/07/17 02:17:00;;;;;;;;;;;21.60;46.40;;;;;;5143306;27;19931;-44
2022/07/17 02:19:26;;;;;;;;;;;20.60;47.50;;;;;;5130193;27;19950;-45
2022/07/17 02:21:52;;;;;;;;;;;20.00;47.80;;;;;;5141361;27;19931;-46
2022/07/17 02:24:18;;;;;;;;;;;19.80;47.90;;;;;;5142768;27;19965;-47
2022/07/17 02:26:44;;;;;;;;;;;19.80;47.60;;;;;;5148680;27;19923;-45
2022/07/17 02:29:10;;;;;;;;;;;20.80;47.90;;;;;;5143368;27;20406;-44
2022/07/17 02:31:36;;;;;;;;;;;21.50;46.30;;;;;;5143373;27;19974;-46
2022/07/17 02:34:01;;;;;;;;;;;20.60;47.20;;;;;;5128509;27;20431;-45
2022/07/17 02:36:27;;;;;;;;;;;20.20;47.30;;;;;;5142945;27;19930;-44
2022/07/17 02:38:53;;;;;;;;;;;20.00;47.20;;;;;;5147371;27;19931;-46
2022/07/17 02:41:19;;;;;;;;;;;19.80;47.40;;;;;;5141821;27;20424;-47
2022/07/17 02:43:45;;;;;;;;;;;20.60;48.40;;;;;;5142685;27;19926;-45
2022/07/17 02:46:10;;;;;;;;;;;21.50;46.40;;;;;;5148537;27;19923;-45
2022/07/17 02:48:36;;;;;;;;;;;20.50;47.50;;;;;;5142665;27;20049;-46
2022/07/17 02:51:02;;;;;;;;;;;20.00;48.00;;;;;;5142244;27;20138;-47
2022/07/17 02:53:28;;;;;;;;;;;20.00;47.30;;;;;;5148152;27;19927;-44
2022/07/17 02:55:53;;;;;;;;;;;19.90;47.90;;;;;;5142719;27;19930;-46
2022/07/17 02:58:19;;;;;;;;;;;20.80;48.20;;;;;;5146664;27;19923;-48
2022/07/17 03:00:45;;;;;;;;;;;21.50;46.30;;;;;;5142844;27;19947;-45
2022/07/17 03:03:11;;;;;;;;;;;20.50;47.30;;;;;;5142580;27;19988;-45
2022/07/17 03:05:37;;;;;;;;;;;20.20;47.40;;;;;;5147890;27;19936;-45
2022/07/17 03:08:03;;;;;;;;;;;19.80;47.50;;;;;;5124235;27;19970;-44
2022/07/17 03:10:29;;;;;;;;;;;20.50;48.70;;;;;;5142425;27;19968;-47
2022/07/17 03:12:54;;;;;;;;;;;21.50;46.50;;;;;;5128981;27;20433;-46
2022/07/17 03:15:21;;;;;;;;;;;20.70;47.20;;;;;;5141871;27;19927;-48
2022/07/17 03:17:47;;;;;;;;;;;20.10;47.70;;;;;;5125848;27;20114;-54
2022/07/17 03:20:13;;;;;;;;;;;20.00;47.20;;;;;;5144888;27;19923;-46
2022/07/17 03:22:39;;;;;;;;;;;19.80;47.90;;;;;;5122970;27;20267;-44
2022/07/17 03:25:05;;;;;;;;;;;20.70;48.30;;;;;;5147665;27;19931;-45
2022/07/17 03:27:30;;;;;;;;;;;21.60;46.20;;;;;;5142077;27;19923;-49
2022/07/17 03:29:56;;;;;;;;;;;20.50;47.40;;;;;;5142148;27;19933;-44
2022/07/17 03:32:22;;;;;;;;;;;20.20;47.30;;;;;;5147461;27;20390;-44
2022/07/17 03:34:48;;;;;;;;;;;19.80;47.40;;;;;;5140626;27;19923;-44
2022/07/17 03:37:14;;;;;;;;;;;19.90;47.80;;;;;;5142214;27;19930;-51
2022/07/17 03:39:39;;;;;;;;;;;20.70;48.30;;;;;;5146927;27;20103;-43
2022/07/17 03:42:05;;;;;;;;;;;21.60;46.00;;;;;;5141928;27;19930;-44
2022/07/17 03:44:31;;;;;;;;;;;20.60;47.20;;;;;;5147399;27;20425;-43
2022/07/17 03:46:57;;;;;;;;;;;20.10;47.40;;;;;;5141346;27;21142;-44
2022/07/17 03:49:22;;;;;;;;;;;19.80;47.60;;;;;;5141946;27;20282;-44
2022/07/17 03:51:48;;;;;;;;;;;19.60;47.40;;;;;;5128265;27;19930;-46
2022/07/17 03:54:14;;;;;;;;;;;20.50;48.70;;;;;;5140408;27;20449;-44
2022/07/17 03:56:40;;;;;;;;;;;21.40;46.80;;;;;;5142109;27;19979;-56
2022/07/17 03:59:06;;;;;;;;;;;21.60;46.00;;;;;;5127816;27;20329;-59
2022/07/17 04:01:31;;;;;;;;;;;21.60;45.20;;;;;;5141729;27;20366;-58
2022/07/17 04:03:57;;;;;;;;;;;21.70;44.50;;;;;;5128142;27;20362;-57
2022/07/17 04:06:23;;;;;;;;;;;21.80;44.40;;;;;;5141467;27;19930;-58
2022/07/17 04:08:48;;;;;;;;;;;21.80;44.00;;;;;;5141452;27;19975;-58
2022/07/17 04:11:14;;;;;;;;;;;21.90;44.20;;;;;;5145679;27;20022;-57
2022/07/17 04:13:40;;;;;;;;;;;22.00;44.20;;;;;;5140572;27;20169;-58
2022/07/17 04:16:06;;;;;;;;;;;21.90;44.70;;;;;;5141253;27;20485;-57
2022/07/17 04:18:32;;;;;;;;;;;22.00;45.10;;;;;;5146853;27;20033;-56
2022/07/17 04:21:02;;;;;;;;;;;22.10;45.30;;;;;;5141368;27;20025;-58
2022/07/17 04:23:28;;;;;;;;;;;22.10;45.50;;;;;;5146144;27;19982;-55
2022/07/17 04:25:53;;;;;;;;;;;22.10;45.60;;;;;;5141312;27;19927;-57
2022/07/17 04:28:19;;;;;;;;;;;22.20;45.60;;;;;;5141045;27;20370;-58
2022/07/17 04:30:45;;;;;;;;;;;22.30;45.30;;;;;;5145023;27;20417;-58
2022/07/17 04:33:11;;;;;;;;;;;22.30;45.30;;;;;;5140874;27;20427;-58
2022/07/17 04:35:37;;;;;;;;;;;21.40;46.70;;;;;;5141217;27;20179;-58
2022/07/17 04:38:04;;;;;;;;;;;21.30;47.40;;;;;;5128139;27;19935;-57
2022/07/17 04:40:30;;;;;;;;;;;21.50;47.30;;;;;;5141001;27;20345;-58
2022/07/17 04:42:55;;;;;;;;;;;21.60;47.10;;;;;;5108966;27;19935;-56
2022/07/17 04:45:21;;;;;;;;;;;21.60;47.00;;;;;;5143175;27;19924;-58
2022/07/17 04:47:47;;;;;;;;;;;21.70;46.60;;;;;;5120902;27;20398;-57
2022/07/17 04:50:13;;;;;;;;;;;21.80;46.40;;;;;;5127135;27;19975;-58
2022/07/17 04:52:38;;;;;;;;;;;21.80;46.10;;;;;;5140646;27;19977;-58
2022/07/17 04:55:04;;;;;;;;;;;21.80;46.10;;;;;;5140961;27;19927;-59
2022/07/17 04:57:30;;;;;;;;;;;21.80;46.10;;;;;;5127971;27;19923;-59
2022/07/17 04:59:56;;;;;;;;;;;21.80;46.10;;;;;;5140506;27;19939;-59
2022/07/17 05:02:22;;;;;;;;;;;21.80;46.50;;;;;;5142158;27;19923;-57
2022/07/17 05:04:47;;;;;;;;;;;21.80;46.70;;;;;;5144980;27;19927;-59
2022/07/17 05:07:13;;;;;;;;;;;21.80;46.70;;;;;;5139166;27;20271;-58
2022/07/17 05:09:39;;;;;;;;;;;21.80;46.70;;;;;;5145917;27;21000;-58
2022/07/17 05:12:05;;;;;;;;;;;21.80;46.40;;;;;;5143782;27;19927;-58
2022/07/17 05:14:31;;;;;;;;;;;21.80;46.40;;;;;;5144339;27;20421;-58
2022/07/17 05:16:56;;;;;;;;;;;21.80;46.10;;;;;;5149830;27;19986;-58
2022/07/17 05:19:23;;;;;;;;;;;21.80;46.10;;;;;;5143696;27;19923;-58
2022/07/17 05:21:49;;;;;;;;;;;21.80;46.40;;;;;;5144235;27;20017;-60
2022/07/17 05:24:15;;;;;;;;;;;21.80;46.50;;;;;;5148995;27;20299;-56
2022/07/17 05:26:41;;;;;;;;;;;21.80;46.60;;;;;;5143258;27;20006;-58
2022/07/17 05:29:06;;;;;;;;;;;21.80;46.40;;;;;;5149476;27;21895;-59
2022/07/17 05:31:32;;;;;;;;;;;21.80;46.20;;;;;;5124328;27;20588;-58
2022/07/17 05:33:58;;;;;;;;;;;21.80;45.90;;;;;;5144443;27;19923;-58
2022/07/17 05:36:24;;;;;;;;;;;21.90;45.60;;;;;;5149171;27;19923;-58
2022/07/17 05:38:49;;;;;;;;;;;21.90;45.50;;;;;;5125559;27;19927;-56
2022/07/17 05:41:15;;;;;;;;;;;22.00;45.60;;;;;;5144207;27;20099;-59
2022/07/17 05:43:41;;;;;;;;;;;21.90;45.80;;;;;;5147825;27;19986;-58
2022/07/17 05:46:07;;;;;;;;;;;21.80;45.90;;;;;;5143536;27;19938;-59
2022/07/17 05:48:32;;;;;;;;;;;21.90;46.00;;;;;;5149218;27;19945;-58
2022/07/17 05:50:58;;;;;;;;;;;21.90;46.00;;;;;;5143963;27;19967;-57
2022/07/17 05:53:24;;;;;;;;;;;21.90;45.70;;;;;;5124655;27;20378;-58
2022/07/17 05:55:50;;;;;;;;;;;21.90;45.60;;;;;;5128896;27;19934;-58
2022/07/17 05:58:16;;;;;;;;;;;22.00;45.40;;;;;;5143778;27;19974;-57
2022/07/17 06:00:42;;;;;;;;;;;22.00;45.40;;;;;;5142854;27;20128;-57
2022/07/17 06:03:07;;;;;;;;;;;21.90;45.40;;;;;;5147971;27;19972;-57
2022/07/17 06:05:33;;;;;;;;;;;21.90;45.40;;;;;;5143526;27;19931;-57
2022/07/17 06:07:59;;;;;;;;;;;21.90;45.30;;;;;;5149083;27;20294;-58
2022/07/17 06:10:25;;;;;;;;;;;21.90;45.20;;;;;;5143762;27;20513;-57
2022/07/17 06:12:52;;;;;;;;;;;21.90;44.90;;;;;;5142992;27;19980;-59
2022/07/17 06:15:18;;;;;;;;;;;22.00;44.80;;;;;;5148809;27;19929;-58
2022/07/17 06:17:44;;;;;;;;;;;22.00;44.70;;;;;;5143151;27;19923;-57
2022/07/17 06:20:10;;;;;;;;;;;21.80;44.70;;;;;;5142000;27;20459;-60
2022/07/17 06:22:36;;;;;;;;;;;20.30;47.20;;;;;;5147389;27;20375;-59
2022/07/17 06:25:02;;;;;;;;;;;19.80;49.40;;;;;;5143380;27;19923;-58
2022/07/17 06:27:28;;;;;;;;;;;20.60;48.60;;;;;;5146209;27;20002;-56
2022/07/17 06:29:53;;;;;;;;;;;21.20;46.60;;;;;;5146064;27;19931;-59
2022/07/17 06:32:19;;;;;;;;;;;21.40;45.80;;;;;;5142959;27;19923;-58
2022/07/17 06:34:45;;;;;;;;;;;21.20;45.40;;;;;;5129866;27;19945;-55
2022/07/17 06:37:11;;;;;;;;;;;21.00;46.20;;;;;;5142662;27;19938;-57
2022/07/17 06:39:37;;;;;;;;;;;21.80;44.90;;;;;;5142045;27;19934;-60
2022/07/17 06:42:02;;;;;;;;;;;21.10;45.90;;;;;;5148169;27;19927;-59
2022/07/17 06:44:28;;;;;;;;;;;20.80;46.50;;;;;;5124924;27;19930;-59
2022/07/17 06:46:54;;;;;;;;;;;20.50;47.50;;;;;;5126523;27;19923;-60
2022/07/17 06:49:20;;;;;;;;;;;20.30;47.40;;;;;;5127572;27;19924;-58
2022/07/17 06:51:46;;;;;;;;;;;20.30;47.70;;;;;;5125651;27;19923;-54
2022/07/17 06:54:12;;;;;;;;;;;20.20;47.70;;;;;;5130698;27;19976;-55
2022/07/17 06:56:38;;;;;;;;;;;20.20;47.90;;;;;;5144960;27;19970;-57
2022/07/17 06:59:06;;;;;;;;;;;20.20;47.60;;;;;;5145631;27;19922;-53
2022/07/17 07:01:33;;;;;;;;;;;20.10;47.70;;;;;;5149202;27;20065;-50
2022/07/17 07:03:59;;;;;;;;;;;20.10;47.80;;;;;;5146488;27;20457;-52
2022/07/17 07:06:25;;;;;;;;;;;19.90;48.20;;;;;;5146407;27;19923;-50
2022/07/17 07:08:51;;;;;;;;;;;20.00;47.90;;;;;;5130515;27;19927;-55
2022/07/17 07:11:17;;;;;;;;;;;20.00;48.00;;;;;;5145998;27;20361;-48
2022/07/17 07:13:42;;;;;;;;;;;19.90;48.20;;;;;;5148797;27;19924;-50
2022/07/17 07:16:08;;;;;;;;;;;19.90;48.20;;;;;;5124700;27;19923;-53
2022/07/17 07:18:34;;;;;;;;;;;20.00;48.10;;;;;;5145485;27;20286;-49
2022/07/17 07:21:00;;;;;;;;;;;19.80;48.40;;;;;;5148634;27;20314;-50
2022/07/17 07:23:25;;;;;;;;;;;19.80;48.50;;;;;;5110067;27;20270;-52
2022/07/17 07:25:51;;;;;;;;;;;20.00;48.20;;;;;;5127171;27;19927;-52
2022/07/17 07:28:17;;;;;;;;;;;19.90;48.30;;;;;;5129500;27;19969;-51
2022/07/17 07:30:44;;;;;;;;;;;19.90;47.90;;;;;;5145411;27;20017;-53
2022/07/17 07:33:10;;;;;;;;;;;19.80;48.10;;;;;;5127446;27;19923;-50
2022/07/17 07:35:36;;;;;;;;;;;19.90;47.80;;;;;;5145345;27;20018;-49
2022/07/17 07:38:02;;;;;;;;;;;19.90;47.80;;;;;;5127207;27;19927;-51
2022/07/17 07:40:28;;;;;;;;;;;20.00;47.70;;;;;;5148733;27;20005;-50
2022/07/17 07:42:53;;;;;;;;;;;19.90;48.10;;;;;;5145559;27;19923;-50
2022/07/17 07:45:19;;;;;;;;;;;19.90;48.10;;;;;;5145023;27;19988;-50
2022/07/17 07:47:46;;;;;;;;;;;19.80;48.30;;;;;;5148236;27;19929;-52
2022/07/17 07:50:12;;;;;;;;;;;19.80;48.30;;;;;;5126893;27;20030;-51
2022/07/17 07:52:38;;;;;;;;;;;19.80;48.30;;;;;;5127324;27;19923;-55
2022/07/17 07:55:04;;;;;;;;;;;19.80;48.30;;;;;;5128353;27;19923;-47
2022/07/17 07:57:30;;;;;;;;;;;19.70;48.60;;;;;;5145381;27;20038;-51
2022/07/17 07:59:56;;;;;;;;;;;19.80;48.40;;;;;;5129776;27;19923;-47
2022/07/17 08:02:22;;;;;;;;;;;20.00;47.90;;;;;;5145165;27;19974;-49
2022/07/17 08:04:47;;;;;;;;;;;20.00;47.90;;;;;;5145198;27;20324;-54
2022/07/17 08:07:13;;;;;;;;;;;20.00;48.10;;;;;;5148174;27;19927;-50
2022/07/17 08:09:39;;;;;;;;;;;20.00;47.80;;;;;;5144419;27;20327;-50
2022/07/17 08:12:05;;;;;;;;;;;20.20;47.30;;;;;;5144723;27;20602;-56
2022/07/17 08:14:31;;;;;;;;;;;19.80;48.20;;;;;;5147750;27;19970;-47
2022/07/17 08:16:56;;;;;;;;;;;19.90;47.80;;;;;;5144837;27;19991;-49
2022/07/17 08:19:22;;;;;;;;;;;19.90;47.60;;;;;;5148193;27;19930;-49
2022/07/17 08:21:48;;;;;;;;;;;20.00;47.50;;;;;;5144165;27;20430;-47
2022/07/17 08:24:14;;;;;;;;;;;19.90;47.70;;;;;;5144255;27;19937;-48
2022/07/17 08:26:39;;;;;;;;;;;20.10;47.50;;;;;;5129366;27;19930;-48
2022/07/17 08:29:05;;;;;;;;;;;20.00;47.40;;;;;;5125242;27;20080;-51
2022/07/17 08:31:30;;;;;;;;;;;20.20;47.10;;;;;;5144702;27;20323;-49
2022/07/17 08:33:56;;;;;;;;;;;20.10;47.20;;;;;;5147745;27;19931;-50
2022/07/17 08:36:22;;;;;;;;;;;20.10;47.40;;;;;;5144362;27;20017;-48
2022/07/17 08:38:48;;;;;;;;;;;20.00;47.70;;;;;;5129241;27;19927;-49
2022/07/17 08:41:16;;;;;;;;;;;20.10;47.40;;;;;;5144376;27;19930;-48
2022/07/17 08:43:42;;;;;;;;;;;20.20;47.10;;;;;;5126160;27;20350;-50
2022/07/17 08:46:11;;;;;;;;;;;20.20;46.80;;;;;;5146551;27;19927;-48
2022/07/17 08:48:38;;;;;;;;;;;20.10;46.70;;;;;;5143729;27;20423;-53
2022/07/17 08:51:04;;;;;;;;;;;20.20;46.20;;;;;;5141417;27;20089;-53
2022/07/17 08:53:30;;;;;;;;;;;20.20;46.30;;;;;;5146324;27;19923;-48
2022/07/17 08:55:56;;;;;;;;;;;20.10;46.40;;;;;;5141504;27;20290;-50
2022/07/17 08:58:21;;;;;;;;;;;20.10;46.50;;;;;;5145412;27;19927;-57
2022/07/17 09:00:49;;;;;;;;;;;20.40;45.80;;;;;;5142021;27;20053;-53
2022/07/17 09:03:16;;;;;;;;;;;20.30;46.00;;;;;;5140940;27;19933;-51
2022/07/17 09:05:42;;;;;;;;;;;20.10;46.30;;;;;;5125863;27;20027;-48
2022/07/17 09:08:08;;;;;;;;;;;20.20;46.10;;;;;;5140637;27;19927;-49
2022/07/17 09:10:37;;;;;;;;;;;20.10;46.10;;;;;;5141149;27;20211;-51
2022/07/17 09:13:13;;;;;;;;;;;20.30;45.70;;;;;;5146224;27;19929;-55
2022/07/17 09:15:39;;;;;;;;;;;20.20;46.30;;;;;;5141079;27;19937;-50
2022/07/17 09:18:05;;;;;;;;;;;20.30;45.90;;;;;;5140830;27;20206;-51
2022/07/17 09:20:31;;;;;;;;;;;20.20;46.10;;;;;;5146322;27;19923;-52
2022/07/17 09:22:58;;;;;;;;;;;20.20;46.30;;;;;;5140148;27;20072;-49
2022/07/17 09:25:33;;;;;;;;;;;20.40;46.30;;;;;;5145433;27;20370;-48
2022/07/17 09:28:00;;;;;;;;;;;20.20;46.80;;;;;;5143976;27;19926;-48
2022/07/17 09:30:26;;;;;;;;;;;20.30;46.20;;;;;;5122563;27;19975;-46
2022/07/17 09:32:54;;;;;;;;;;;20.30;46.10;;;;;;5145880;27;19946;-47
2022/07/17 09:35:20;;;;;;;;;;;20.30;46.10;;;;;;5140322;27;19931;-47
2022/07/17 09:37:46;;;;;;;;;;;20.20;46.20;;;;;;5140465;27;19931;-49
2022/07/17 09:42:57;;;;;;;;;;;20.40;45.60;;;;;;5139346;27;20331;-48
2022/07/17 09:45:22;;;;;;;;;;;20.30;45.50;;;;;;5140294;27;19938;-49
2022/07/17 09:47:48;;;;;;;;;;;20.50;44.90;;;;;;5127183;27;20282;-50
2022/07/17 09:50:14;;;;;;;;;;;20.30;45.30;;;;;;5121014;27;19924;-46
2022/07/17 09:52:40;;;;;;;;;;;20.30;44.40;;;;;;5123609;27;19923;-57
2022/07/17 09:55:06;;;;;;;;;;;20.40;43.70;;;;;;5143821;27;20287;-51
2022/07/17 09:57:32;;;;;;;;;;;20.40;43.60;;;;;;5141319;27;19923;-47
2022/07/17 09:59:59;;;;;;;;;;;20.50;43.20;;;;;;5148036;27;19923;-54
2022/07/17 10:02:24;;;;;;;;;;;20.40;43.30;;;;;;5143079;27;19949;-51
2022/07/17 10:04:50;;;;;;;;;;;20.50;43.20;;;;;;5143828;27;19923;-52
2022/07/17 10:07:16;;;;;;;;;;;20.40;43.20;;;;;;5149223;27;19927;-52
2022/07/17 10:09:42;;;;;;;;;;;20.30;43.60;;;;;;5125464;27;20031;-50
2022/07/17 10:12:08;;;;;;;;;;;20.30;43.50;;;;;;5143346;27;19923;-50
2022/07/17 10:14:34;;;;;;;;;;;20.60;42.60;;;;;;5129442;27;19935;-48
2022/07/17 10:17:10;;;;;;;;;;;20.30;43.00;;;;;;5143490;27;19931;-50
2022/07/17 10:19:49;;;;;;;;;;;20.50;42.60;;;;;;5128276;27;19923;-47
2022/07/17 10:22:14;;;;;;;;;;;20.40;42.50;;;;;;5148301;27;19929;-52
2022/07/17 10:24:46;;;;;;;;;;;20.40;42.70;;;;;;5143604;27;19923;-51
2022/07/17 10:27:19;;;;;;;;;;;20.50;42.00;;;;;;5148970;27;19951;-48
2022/07/17 10:29:44;;;;;;;;;;;20.50;42.20;;;;;;5125111;27;19986;-49
2022/07/17 10:32:17;;;;;;;;;;;20.70;41.90;;;;;;5124657;27;20351;-50
2022/07/17 10:34:47;;;;;;;;;;;20.70;42.10;;;;;;5130054;27;19927;-49
2022/07/17 10:37:13;;;;;;;;;;;20.60;42.40;;;;;;5142203;27;20390;-52
2022/07/17 10:39:39;;;;;;;;;;;20.50;42.40;;;;;;5142806;27;19924;-52
2022/07/17 10:42:05;;;;;;;;;;;20.60;41.90;;;;;;5129922;27;20256;-52
2022/07/17 10:44:31;;;;;;;;;;;20.50;41.80;;;;;;5143249;27;19923;-49
2022/07/17 10:46:57;;;;;;;;;;;20.60;41.80;;;;;;5143189;27;19971;-51
2022/07/17 10:49:23;;;;;;;;;;;20.60;41.90;;;;;;5147689;27;19927;-55
2022/07/17 10:51:50;;;;;;;;;;;20.80;41.90;;;;;;5142863;27;19934;-51
2022/07/17 10:54:17;;;;;;;;;;;20.60;42.10;;;;;;5129386;27;19931;-52
2022/07/17 10:56:46;;;;;;;;;;;20.80;41.70;;;;;;5140709;27;21294;-52
2022/07/17 10:59:12;;;;;;;;;;;20.60;42.00;;;;;;5142292;27;19980;-54
2022/07/17 11:01:38;;;;;;;;;;;20.70;41.90;;;;;;5147937;27;20313;-55
2022/07/17 11:04:07;;;;;;;;;;;20.70;41.90;;;;;;5142536;27;19923;-53
2022/07/17 11:06:34;;;;;;;;;;;20.70;41.90;;;;;;5122502;27;20194;-51
2022/07/17 11:09:01;;;;;;;;;;;20.60;41.50;;;;;;5147589;27;19929;-52
2022/07/17 11:11:45;;;;;;;;;;;20.60;41.40;;;;;;5142302;27;20022;-52
2022/07/17 11:14:18;;;;;;;;;;;20.50;41.50;;;;;;5140648;27;19949;-54
2022/07/17 11:16:45;;;;;;;;;;;20.50;41.50;;;;;;5147095;27;20305;-51
2022/07/17 11:19:11;;;;;;;;;;;20.80;40.90;;;;;;5142212;27;19937;-54
2022/07/17 11:21:46;;;;;;;;;;;20.60;41.30;;;;;;5146384;27;20378;-58
2022/07/17 11:24:12;;;;;;;;;;;20.70;41.00;;;;;;5147745;27;19940;-49
2022/07/17 11:26:38;;;;;;;;;;;20.70;41.40;;;;;;5141725;27;20018;-51
2022/07/17 11:29:03;;;;;;;;;;;20.60;41.20;;;;;;5147348;27;20100;-52
2022/07/17 11:31:29;;;;;;;;;;;20.70;41.70;;;;;;5141067;27;19923;-58
2022/07/17 11:33:56;;;;;;;;;;;20.90;40.90;;;;;;5141037;27;19923;-51
2022/07/17 11:36:25;;;;;;;;;;;20.80;40.90;;;;;;5147440;27;19973;-52
2022/07/17 11:38:52;;;;;;;;;;;20.80;40.80;;;;;;5141994;27;20029;-54
2022/07/17 11:41:18;;;;;;;;;;;20.90;40.60;;;;;;5121632;27;20418;-50
2022/07/17 11:43:44;;;;;;;;;;;20.70;41.10;;;;;;5127960;27;19923;-50
2022/07/17 11:46:10;;;;;;;;;;;20.80;41.40;;;;;;5141664;27;19930;-47
2022/07/17 11:48:35;;;;;;;;;;;20.80;40.60;;;;;;5147192;27;19923;-49
2022/07/17 11:51:01;;;;;;;;;;;20.70;39.60;;;;;;5140280;27;19927;-51
2022/07/17 11:53:31;;;;;;;;;;;20.80;39.10;;;;;;5141096;27;19927;-47
2022/07/17 11:55:56;;;;;;;;;;;20.60;38.70;;;;;;5146866;27;19923;-49
2022/07/17 11:58:22;;;;;;;;;;;20.70;38.30;;;;;;5123308;27;20389;-47
2022/07/17 12:00:48;;;;;;;;;;;20.90;38.00;;;;;;5141798;27;20011;-46
2022/07/17 12:03:14;;;;;;;;;;;20.70;38.20;;;;;;5146464;27;19934;-47
2022/07/17 12:05:40;;;;;;;;;;;20.90;38.00;;;;;;5141724;27;19923;-52
2022/07/17 12:08:08;;;;;;;;;;;20.90;38.30;;;;;;5143831;27;19923;-57
2022/07/17 12:10:34;;;;;;;;;;;20.90;38.90;;;;;;5143797;27;20026;-50
2022/07/17 12:13:06;;;;;;;;;;;21.00;39.30;;;;;;5140938;27;19938;-52
2022/07/17 12:15:41;;;;;;;;;;;21.10;39.50;;;;;;5127637;27;20021;-55
2022/07/17 12:18:18;;;;;;;;;;;21.10;39.80;;;;;;5141137;27;19927;-50
2022/07/17 12:20:45;;;;;;;;;;;21.10;39.70;;;;;;5139928;27;19933;-50
2022/07/17 12:23:26;;;;;;;;;;;20.90;39.70;;;;;;5128121;27;19924;-53
2022/07/17 12:25:52;;;;;;;;;;;21.00;39.30;;;;;;5141167;27;19926;-52
2022/07/17 12:28:17;;;;;;;;;;;21.10;39.00;;;;;;5120961;27;19923;-50
2022/07/17 12:30:43;;;;;;;;;;;21.00;38.60;;;;;;5146233;27;19978;-48
2022/07/17 12:33:09;;;;;;;;;;;21.00;38.30;;;;;;5141051;27;19927;-50
2022/07/17 12:35:35;;;;;;;;;;;20.90;38.10;;;;;;5141017;27;19987;-53
2022/07/17 12:38:01;;;;;;;;;;;20.90;37.50;;;;;;5146457;27;19946;-49
2022/07/17 12:40:26;;;;;;;;;;;20.90;37.70;;;;;;5140696;27;19922;-48
2022/07/17 12:42:52;;;;;;;;;;;21.00;36.90;;;;;;5145623;27;19927;-56
2022/07/17 12:45:18;;;;;;;;;;;21.00;37.00;;;;;;5140595;27;19947;-50
2022/07/17 12:47:44;;;;;;;;;;;21.10;37.00;;;;;;5139809;27;19930;-51
2022/07/17 12:50:10;;;;;;;;;;;21.20;37.10;;;;;;5146320;27;20418;-48
2022/07/17 12:52:36;;;;;;;;;;;21.10;37.60;;;;;;5140864;27;20014;-49
2022/07/17 12:55:02;;;;;;;;;;;21.20;37.80;;;;;;5141029;27;19923;-50
2022/07/17 12:57:28;;;;;;;;;;;21.00;38.30;;;;;;5145795;27;19927;-48
2022/07/17 12:59:53;;;;;;;;;;;21.10;38.20;;;;;;5140700;27;19929;-46
2022/07/17 13:02:19;;;;;;;;;;;21.10;38.30;;;;;;5143090;27;20279;-57
2022/07/17 13:04:45;;;;;;;;;;;21.40;38.00;;;;;;5142544;27;19927;-50
2022/07/17 13:07:11;;;;;;;;;;;21.30;37.90;;;;;;5121705;27;19930;-47
2022/07/17 13:09:37;;;;;;;;;;;21.40;38.00;;;;;;5146057;27;19927;-51
2022/07/17 13:12:02;;;;;;;;;;;21.30;37.50;;;;;;5140785;27;20086;-49
2022/07/17 13:14:28;;;;;;;;;;;21.40;36.90;;;;;;5122298;27;20045;-47
2022/07/17 13:16:54;;;;;;;;;;;21.40;36.90;;;;;;5145582;27;20015;-46
2022/07/17 13:19:21;;;;;;;;;;;21.30;37.30;;;;;;5140581;27;20947;-49
2022/07/17 13:21:47;;;;;;;;;;;21.30;36.90;;;;;;5139678;27;19927;-50
2022/07/17 13:24:13;;;;;;;;;;;21.30;37.00;;;;;;5144935;27;19923;-52
2022/07/17 13:26:39;;;;;;;;;;;21.30;36.50;;;;;;5121746;27;19930;-50
2022/07/17 13:29:05;;;;;;;;;;;21.40;35.60;;;;;;5146025;27;20017;-48
2022/07/17 13:31:30;;;;;;;;;;;21.30;35.10;;;;;;5141417;27;19930;-46
2022/07/17 13:33:56;;;;;;;;;;;21.50;34.00;;;;;;5143729;27;19927;-47
2022/07/17 13:36:22;;;;;;;;;;;21.20;33.00;;;;;;5149528;27;19937;-49
2022/07/17 13:38:48;;;;;;;;;;;21.30;33.00;;;;;;5143993;27;19927;-51
2022/07/17 13:41:14;;;;;;;;;;;21.20;33.70;;;;;;5142434;27;20118;-46
2022/07/17 13:43:39;;;;;;;;;;;21.30;33.60;;;;;;5148924;27;19982;-45
2022/07/17 13:46:05;;;;;;;;;;;21.40;33.80;;;;;;5143842;27;20094;-45
2022/07/17 13:48:31;;;;;;;;;;;21.20;33.90;;;;;;5149379;27;19923;-45
2022/07/17 13:50:57;;;;;;;;;;;21.30;33.60;;;;;;5143821;27;19984;-49
2022/07/17 13:53:23;;;;;;;;;;;21.30;33.40;;;;;;5143101;27;19972;-48
2022/07/17 13:55:49;;;;;;;;;;;21.30;32.90;;;;;;5149376;27;19927;-45
2022/07/17 13:58:15;;;;;;;;;;;21.50;32.80;;;;;;5142907;27;20026;-47
2022/07/17 14:00:40;;;;;;;;;;;21.30;33.10;;;;;;5142424;27;20297;-47
2022/07/17 14:03:06;;;;;;;;;;;21.40;33.30;;;;;;5148692;27;19923;-48
2022/07/17 14:05:32;;;;;;;;;;;21.70;33.20;;;;;;5143421;27;19923;-48
2022/07/17 14:07:58;;;;;;;;;;;21.60;33.30;;;;;;5148694;27;20345;-46
2022/07/17 14:10:24;;;;;;;;;;;21.30;33.90;;;;;;5142960;27;20034;-46
2022/07/17 14:12:50;;;;;;;;;;;21.40;34.00;;;;;;5143103;27;19926;-49